createdAt,value
2022-08-01T00:00:15.189Z,95558
2022-08-01T00:01:23.863Z,95553
2022-08-01T00:02:32.691Z,95551
2022-08-01T00:03:41.317Z,95554
2022-08-01T00:04:50.031Z,95550
2022-08-01T00:05:58.699Z,95553
2022-08-01T00:07:08.465Z,95549
2022-08-01T00:08:16.270Z,95553
2022-08-01T00:09:24.958Z,95549
2022-08-01T00:10:36.024Z,95553
2022-08-01T00:11:44.294Z,95553
2022-08-01T00:12:54.991Z,95552
2022-08-01T00:14:03.697Z,95554
2022-08-01T00:15:12.367Z,95557
2022-08-01T00:16:22.156Z,95554
2022-08-01T00:17:29.829Z,95551
2022-08-01T00:18:39.523Z,95556
2022-08-01T00:19:49.241Z,95555
2022-08-01T00:20:58.944Z,95554
2022-08-01T00:22:07.950Z,95555
2022-08-01T00:23:16.315Z,95553
2022-08-01T00:24:25.012Z,95558
2022-08-01T00:25:34.804Z,95564
2022-08-01T00:26:43.322Z,95561
2022-08-01T00:27:52.071Z,95556
2022-08-01T00:29:01.804Z,95562
2022-08-01T00:30:14.775Z,95558
2022-08-01T00:31:22.252Z,95563
2022-08-01T00:32:30.960Z,95562
2022-08-01T00:33:40.917Z,95562
2022-08-01T00:34:50.664Z,95562
2022-08-01T00:35:58.426Z,95561
2022-08-01T00:37:07.117Z,95564
2022-08-01T00:38:17.865Z,95561
2022-08-01T00:39:26.683Z,95561
2022-08-01T00:40:35.498Z,95562
2022-08-01T00:41:45.354Z,95559
2022-08-01T00:42:55.074Z,95560
2022-08-01T00:44:03.832Z,95561
2022-08-01T00:45:13.583Z,95561
2022-08-01T00:46:22.304Z,95561
2022-08-01T00:47:31.060Z,95559
2022-08-01T00:48:40.823Z,95560
2022-08-01T00:49:50.588Z,95560
2022-08-01T00:51:00.404Z,95561
2022-08-01T00:52:10.133Z,95560
2022-08-01T00:53:19.872Z,95560
2022-08-01T00:54:29.590Z,95560
2022-08-01T00:55:39.304Z,95560
2022-08-01T00:56:48.160Z,95557
2022-08-01T00:58:01.964Z,95555
2022-08-01T00:59:06.464Z,95558
2022-08-01T01:00:17.135Z,95561
2022-08-01T01:01:25.826Z,95557
2022-08-01T01:02:34.480Z,95556
2022-08-01T01:03:58.415Z,95556
2022-08-01T01:04:54.851Z,95557
2022-08-01T01:06:03.544Z,95563
2022-08-01T01:07:13.250Z,95562
2022-08-01T01:08:23.001Z,95558
2022-08-01T01:09:32.734Z,95554
2022-08-01T01:10:40.423Z,95562
2022-08-01T01:11:50.165Z,95560
2022-08-01T01:12:59.879Z,95569
2022-08-01T01:14:09.642Z,95569
2022-08-01T01:15:19.389Z,95569
2022-08-01T01:16:29.100Z,95568
2022-08-01T01:17:49.828Z,95572
2022-08-01T01:18:48.450Z,95571
2022-08-01T01:19:57.212Z,95570
2022-08-01T01:21:05.921Z,95566
2022-08-01T01:22:15.656Z,95569
2022-08-01T01:23:24.324Z,95569
2022-08-01T01:24:33.037Z,95572
2022-08-01T01:25:41.790Z,95569
2022-08-01T01:26:51.456Z,95569
2022-08-01T01:28:01.147Z,95573
2022-08-01T01:29:08.826Z,95571
2022-08-01T01:30:17.576Z,95575
2022-08-01T01:31:27.303Z,95578
2022-08-01T01:32:35.234Z,95571
2022-08-01T01:33:45.257Z,95573
2022-08-01T01:34:54.416Z,95572
2022-08-01T01:36:03.104Z,95573
2022-08-01T01:37:13.785Z,95569
2022-08-01T01:38:24.479Z,95571
2022-08-01T01:39:33.190Z,95574
2022-08-01T01:40:43.876Z,95576
2022-08-01T01:41:52.607Z,95573
2022-08-01T01:43:01.359Z,95576
2022-08-01T01:44:10.100Z,95574
2022-08-01T01:45:18.828Z,95575
2022-08-01T01:46:28.511Z,95575
2022-08-01T01:47:36.234Z,95572
2022-08-01T01:48:45.963Z,95575
2022-08-01T01:49:55.735Z,95574
2022-08-01T01:51:04.479Z,95572
2022-08-01T01:52:13.177Z,95574
2022-08-01T01:53:21.921Z,95574
2022-08-01T01:54:30.636Z,95576
2022-08-01T01:55:49.243Z,95578
2022-08-01T01:56:51.011Z,95576
2022-08-01T01:57:59.712Z,95577
2022-08-01T01:59:09.477Z,95574
2022-08-01T02:00:19.222Z,95574
2022-08-01T02:01:38.777Z,95572
2022-08-01T02:02:39.775Z,95572
2022-08-01T02:03:49.469Z,95575
2022-08-01T02:04:59.169Z,95573
2022-08-01T02:06:06.894Z,95574
2022-08-01T02:07:16.591Z,95577
2022-08-01T02:08:26.295Z,95575
2022-08-01T02:09:36.016Z,95581
2022-08-01T02:10:44.743Z,95583
2022-08-01T02:11:59.329Z,95577
2022-08-01T02:13:03.169Z,95578
2022-08-01T02:14:12.904Z,95579
2022-08-01T02:15:20.592Z,95579
2022-08-01T02:16:29.284Z,95578
2022-08-01T02:17:40.125Z,95579
2022-08-01T02:18:49.824Z,95579
2022-08-01T02:19:59.489Z,95579
2022-08-01T02:21:08.190Z,95582
2022-08-01T02:22:17.878Z,95580
2022-08-01T02:23:27.714Z,95584
2022-08-01T02:24:35.408Z,95590
2022-08-01T02:26:10.058Z,95585
2022-08-01T02:26:55.745Z,95586
2022-08-01T02:28:03.476Z,95585
2022-08-01T02:29:12.174Z,95589
2022-08-01T02:30:20.918Z,95592
2022-08-01T02:31:30.612Z,95586
2022-08-01T02:32:40.315Z,95584
2022-08-01T02:33:48.055Z,95583
2022-08-01T02:34:56.826Z,95585
2022-08-01T02:36:29.259Z,95587
2022-08-01T02:37:17.308Z,95584
2022-08-01T02:38:25.969Z,95579
2022-08-01T02:39:35.705Z,95584
2022-08-01T02:40:43.410Z,95582
2022-08-01T02:41:52.093Z,95581
2022-08-01T02:43:01.799Z,95582
2022-08-01T02:44:09.491Z,95585
2022-08-01T02:45:19.243Z,95585
2022-08-01T02:46:27.953Z,95586
2022-08-01T02:47:36.681Z,95590
2022-08-01T02:48:46.382Z,95584
2022-08-01T02:49:54.135Z,95590
2022-08-01T02:51:05.004Z,95584
2022-08-01T02:52:13.576Z,95589
2022-08-01T02:53:20.292Z,95592
2022-08-01T02:54:29.974Z,95593
2022-08-01T02:55:38.717Z,95590
2022-08-01T02:56:48.406Z,95593
2022-08-01T02:58:00.301Z,95594
2022-08-01T02:59:07.783Z,95596
2022-08-01T03:00:17.569Z,95594
2022-08-01T03:01:29.227Z,95598
2022-08-01T03:02:36.938Z,95593
2022-08-01T03:03:45.663Z,95592
2022-08-01T03:04:57.012Z,95593
2022-08-01T03:06:04.100Z,95595
2022-08-01T03:07:13.783Z,95595
2022-08-01T03:08:22.493Z,95593
2022-08-01T03:09:31.325Z,95596
2022-08-01T03:10:41.027Z,95589
2022-08-01T03:11:49.754Z,95591
2022-08-01T03:12:59.460Z,95589
2022-08-01T03:14:08.138Z,95592
2022-08-01T03:15:16.905Z,95591
2022-08-01T03:16:26.581Z,95591
2022-08-01T03:17:34.337Z,95597
2022-08-01T03:18:43.095Z,95594
2022-08-01T03:19:52.781Z,95599
2022-08-01T03:21:00.567Z,95604
2022-08-01T03:22:09.243Z,95602
2022-08-01T03:23:18.020Z,95604
2022-08-01T03:24:28.698Z,95599
2022-08-01T03:25:38.384Z,95603
2022-08-01T03:26:47.098Z,95604
2022-08-01T03:27:55.762Z,95603
2022-08-01T03:29:05.478Z,95606
2022-08-01T03:30:13.309Z,95611
2022-08-01T03:31:22.040Z,95608
2022-08-01T03:32:30.769Z,95603
2022-08-01T03:33:39.487Z,95601
2022-08-01T03:34:49.245Z,95602
2022-08-01T03:35:57.938Z,95603
2022-08-01T03:37:06.678Z,95605
2022-08-01T03:38:16.795Z,95607
2022-08-01T03:39:27.257Z,95605
2022-08-01T03:40:36.028Z,95605
2022-08-01T03:41:44.765Z,95605
2022-08-01T03:42:55.538Z,95607
2022-08-01T03:44:05.300Z,95607
2022-08-01T03:45:14.965Z,95609
2022-08-01T03:46:25.230Z,95608
2022-08-01T03:47:34.319Z,95605
2022-08-01T03:48:45.031Z,95618
2022-08-01T03:49:54.743Z,95614
2022-08-01T03:51:03.527Z,95617
2022-08-01T03:52:13.184Z,95617
2022-08-01T03:53:22.926Z,95617
2022-08-01T03:54:30.602Z,95616
2022-08-01T03:55:40.340Z,95619
2022-08-01T03:56:50.070Z,95624
2022-08-01T03:57:58.735Z,95624
2022-08-01T03:59:09.434Z,95624
2022-08-01T04:00:18.227Z,95622
2022-08-01T04:01:27.001Z,95627
2022-08-01T04:02:36.666Z,95629
2022-08-01T04:03:45.367Z,95627
2022-08-01T04:04:54.072Z,95625
2022-08-01T04:06:03.852Z,95621
2022-08-01T04:07:12.582Z,95624
2022-08-01T04:08:21.293Z,95626
2022-08-01T04:09:32.087Z,95629
2022-08-01T04:10:42.841Z,95629
2022-08-01T04:11:53.574Z,95629
2022-08-01T04:13:03.397Z,95628
2022-08-01T04:14:13.134Z,95635
2022-08-01T04:15:22.915Z,95626
2022-08-01T04:16:30.701Z,95632
2022-08-01T04:17:40.438Z,95636
2022-08-01T04:18:50.251Z,95636
2022-08-01T04:19:59.012Z,95642
2022-08-01T04:21:08.790Z,95635
2022-08-01T04:22:17.517Z,95638
2022-08-01T04:23:27.278Z,95639
2022-08-01T04:24:37.042Z,95642
2022-08-01T04:25:45.715Z,95643
2022-08-01T04:26:54.391Z,95647
2022-08-01T04:28:04.144Z,95649
2022-08-01T04:29:13.914Z,95652
2022-08-01T04:30:23.800Z,95654
2022-08-01T04:31:33.565Z,95659
2022-08-01T04:32:43.322Z,95654
2022-08-01T04:33:53.045Z,95658
2022-08-01T04:35:01.767Z,95661
2022-08-01T04:36:12.466Z,95660
2022-08-01T04:37:22.201Z,95657
2022-08-01T04:38:31.955Z,95656
2022-08-01T04:39:50.868Z,95653
2022-08-01T04:40:52.448Z,95655
2022-08-01T04:42:01.224Z,95653
2022-08-01T04:43:10.989Z,95653
2022-08-01T04:44:20.719Z,95658
2022-08-01T04:45:30.398Z,95657
2022-08-01T04:46:40.142Z,95658
2022-08-01T04:47:48.971Z,95659
2022-08-01T04:48:58.801Z,95661
2022-08-01T04:50:08.461Z,95660
2022-08-01T04:51:17.198Z,95662
2022-08-01T04:52:26.947Z,95664
2022-08-01T04:53:36.790Z,95666
2022-08-01T04:54:46.474Z,95667
2022-08-01T04:55:56.169Z,95671
2022-08-01T04:57:04.973Z,95664
2022-08-01T04:58:17.839Z,95663
2022-08-01T04:59:24.528Z,95666
2022-08-01T05:00:34.301Z,95664
2022-08-01T05:01:43.154Z,95667
2022-08-01T05:02:52.841Z,95666
2022-08-01T05:04:01.650Z,95662
2022-08-01T05:05:11.493Z,95670
2022-08-01T05:06:21.335Z,95667
2022-08-01T05:07:30.173Z,95671
2022-08-01T05:08:40.889Z,95668
2022-08-01T05:09:50.683Z,95669
2022-08-01T05:11:00.517Z,95673
2022-08-01T05:12:10.317Z,95673
2022-08-01T05:13:19.091Z,95670
2022-08-01T05:14:28.838Z,95675
2022-08-01T05:15:38.667Z,95675
2022-08-01T05:16:47.455Z,95674
2022-08-01T05:17:57.216Z,95679
2022-08-01T05:19:05.985Z,95682
2022-08-01T05:20:14.737Z,95684
2022-08-01T05:21:24.501Z,95683
2022-08-01T05:22:34.280Z,95683
2022-08-01T05:23:44.021Z,95682
2022-08-01T05:24:53.788Z,95683
2022-08-01T05:26:02.688Z,95681
2022-08-01T05:27:13.503Z,95680
2022-08-01T05:28:22.288Z,95684
2022-08-01T05:29:31.156Z,95685
2022-08-01T05:30:41.972Z,95686
2022-08-01T05:31:51.791Z,95681
2022-08-01T05:33:01.529Z,95686
2022-08-01T05:34:14.790Z,95686
2022-08-01T05:35:19.185Z,95686
2022-08-01T05:36:29.925Z,95691
2022-08-01T05:37:39.798Z,95686
2022-08-01T05:38:49.581Z,95688
2022-08-01T05:39:58.524Z,95688
2022-08-01T05:41:08.431Z,95690
2022-08-01T05:42:18.238Z,95693
2022-08-01T05:43:29.048Z,95688
2022-08-01T05:44:36.746Z,95692
2022-08-01T05:45:46.542Z,95699
2022-08-01T05:46:55.416Z,95698
2022-08-01T05:48:05.277Z,95698
2022-08-01T05:49:15.119Z,95696
2022-08-01T05:50:24.840Z,95697
2022-08-01T05:51:34.642Z,95697
2022-08-01T05:52:43.504Z,95698
2022-08-01T05:53:52.230Z,95700
2022-08-01T05:55:02.072Z,95702
2022-08-01T05:56:10.872Z,95700
2022-08-01T05:57:19.761Z,95699
2022-08-01T05:58:30.584Z,95699
2022-08-01T05:59:40.433Z,95701
2022-08-01T06:00:50.280Z,95701
2022-08-01T06:01:59.061Z,95702
2022-08-01T06:03:09.046Z,95702
2022-08-01T06:04:17.886Z,95706
2022-08-01T06:05:27.749Z,95705
2022-08-01T06:06:36.691Z,95702
2022-08-01T06:07:45.471Z,95710
2022-08-01T06:08:55.250Z,95700
2022-08-01T06:10:05.025Z,95709
2022-08-01T06:11:13.798Z,95704
2022-08-01T06:12:23.627Z,95708
2022-08-01T06:13:34.387Z,95708
2022-08-01T06:14:45.190Z,95710
2022-08-01T06:15:55.019Z,95710
2022-08-01T06:17:04.918Z,95708
2022-08-01T06:18:14.745Z,95712
2022-08-01T06:19:24.643Z,95708
2022-08-01T06:20:34.523Z,95708
2022-08-01T06:21:44.247Z,95706
2022-08-01T06:22:54.049Z,95706
2022-08-01T06:24:04.789Z,95713
2022-08-01T06:25:13.559Z,95713
2022-08-01T06:26:24.387Z,95715
2022-08-01T06:27:33.141Z,95715
2022-08-01T06:28:42.938Z,95719
2022-08-01T06:29:53.644Z,95715
2022-08-01T06:31:01.535Z,95709
2022-08-01T06:32:11.337Z,95719
2022-08-01T06:33:22.077Z,95717
2022-08-01T06:34:31.890Z,95712
2022-08-01T06:35:41.647Z,95712
2022-08-01T06:36:50.417Z,95719
2022-08-01T06:38:00.374Z,95718
2022-08-01T06:39:10.213Z,95718
2022-08-01T06:40:19.956Z,95721
2022-08-01T06:41:29.719Z,95724
2022-08-01T06:42:39.496Z,95725
2022-08-01T06:43:49.440Z,95728
2022-08-01T06:44:59.208Z,95728
2022-08-01T06:46:07.982Z,95725
2022-08-01T06:47:17.785Z,95717
2022-08-01T06:48:27.568Z,95719
2022-08-01T06:49:37.573Z,95719
2022-08-01T06:50:47.232Z,95726
2022-08-01T06:51:57.965Z,95717
2022-08-01T06:53:07.758Z,95713
2022-08-01T06:54:17.504Z,95718
2022-08-01T06:55:26.369Z,95716
2022-08-01T06:56:35.043Z,95715
2022-08-01T06:57:44.911Z,95719
2022-08-01T06:58:54.650Z,95721
2022-08-01T07:00:03.481Z,95723
2022-08-01T07:01:13.348Z,95717
2022-08-01T07:02:22.046Z,95715
2022-08-01T07:03:52.518Z,95721
2022-08-01T07:04:42.636Z,95715
2022-08-01T07:05:52.423Z,95720
2022-08-01T07:07:02.244Z,95719
2022-08-01T07:08:11.039Z,95720
2022-08-01T07:09:20.862Z,95720
2022-08-01T07:10:30.667Z,95722
2022-08-01T07:11:39.466Z,95722
2022-08-01T07:12:49.328Z,95720
2022-08-01T07:13:57.064Z,95718
2022-08-01T07:15:07.101Z,95722
2022-08-01T07:16:16.909Z,95722
2022-08-01T07:17:26.666Z,95716
2022-08-01T07:18:36.489Z,95711
2022-08-01T07:19:45.252Z,95715
2022-08-01T07:20:54.062Z,95713
2022-08-01T07:22:05.095Z,95711
2022-08-01T07:23:14.640Z,95714
2022-08-01T07:24:25.394Z,95715
2022-08-01T07:25:35.288Z,95707
2022-08-01T07:26:52.794Z,95711
2022-08-01T07:27:56.886Z,95708
2022-08-01T07:29:06.694Z,95719
2022-08-01T07:30:16.509Z,95716
2022-08-01T07:31:27.407Z,95707
2022-08-01T07:32:35.060Z,95711
2022-08-01T07:33:47.865Z,95712
2022-08-01T07:34:54.668Z,95711
2022-08-01T07:36:04.470Z,95711
2022-08-01T07:37:14.267Z,95713
2022-08-01T07:38:25.074Z,95708
2022-08-01T07:39:34.896Z,95712
2022-08-01T07:40:44.713Z,95712
2022-08-01T07:42:07.010Z,95703
2022-08-01T07:43:04.378Z,95715
2022-08-01T07:44:14.245Z,95708
2022-08-01T07:45:23.990Z,95713
2022-08-01T07:46:32.746Z,95714
2022-08-01T07:47:42.691Z,95712
2022-08-01T07:48:52.522Z,95708
2022-08-01T07:50:01.467Z,95704
2022-08-01T07:51:10.226Z,95707
2022-08-01T07:52:20.257Z,95710
2022-08-01T07:53:29.918Z,95710
2022-08-01T07:54:38.768Z,95711
2022-08-01T07:55:49.632Z,95714
2022-08-01T07:56:58.474Z,95715
2022-08-01T07:58:07.314Z,95716
2022-08-01T07:59:17.494Z,95718
2022-08-01T08:00:27.957Z,95715
2022-08-01T08:01:37.867Z,95715
2022-08-01T08:02:46.614Z,95714
2022-08-01T08:03:55.373Z,95720
2022-08-01T08:05:05.154Z,95718
2022-08-01T08:06:14.955Z,95719
2022-08-01T08:07:23.758Z,95717
2022-08-01T08:08:33.646Z,95720
2022-08-01T08:09:42.549Z,95714
2022-08-01T08:10:53.478Z,95718
2022-08-01T08:12:03.437Z,95722
2022-08-01T08:13:13.062Z,95723
2022-08-01T08:14:32.179Z,95724
2022-08-01T08:15:34.570Z,95715
2022-08-01T08:16:44.402Z,95717
2022-08-01T08:17:55.075Z,95711
2022-08-01T08:19:03.959Z,95719
2022-08-01T08:20:13.835Z,95719
2022-08-01T08:21:23.623Z,95718
2022-08-01T08:22:31.419Z,95723
2022-08-01T08:23:43.358Z,95718
2022-08-01T08:24:50.989Z,95717
2022-08-01T08:26:00.746Z,95715
2022-08-01T08:27:10.537Z,95717
2022-08-01T08:28:24.178Z,95717
2022-08-01T08:29:30.155Z,95724
2022-08-01T08:30:39.967Z,95716
2022-08-01T08:31:51.030Z,95715
2022-08-01T08:32:59.558Z,95710
2022-08-01T08:34:10.326Z,95711
2022-08-01T08:35:23.388Z,95708
2022-08-01T08:36:30.955Z,95714
2022-08-01T08:37:42.884Z,95709
2022-08-01T08:38:51.314Z,95703
2022-08-01T08:40:01.080Z,95705
2022-08-01T08:41:10.873Z,95711
2022-08-01T08:42:21.648Z,95703
2022-08-01T08:43:31.484Z,95709
2022-08-01T08:44:43.471Z,95708
2022-08-01T08:45:58.116Z,95706
2022-08-01T08:47:00.966Z,95711
2022-08-01T08:48:10.704Z,95714
2022-08-01T08:49:21.526Z,95708
2022-08-01T08:50:32.263Z,95709
2022-08-01T08:51:41.273Z,95708
2022-08-01T08:52:51.020Z,95711
2022-08-01T08:54:00.836Z,95708
2022-08-01T08:55:10.627Z,95710
2022-08-01T08:56:20.391Z,95707
2022-08-01T08:57:31.205Z,95712
2022-08-01T08:58:40.945Z,95710
2022-08-01T08:59:50.740Z,95710
2022-08-01T09:01:00.518Z,95709
2022-08-01T09:02:10.483Z,95706
2022-08-01T09:03:18.184Z,95707
2022-08-01T09:04:27.898Z,95704
2022-08-01T09:05:38.483Z,95707
2022-08-01T09:06:47.489Z,95710
2022-08-01T09:07:57.264Z,95698
2022-08-01T09:09:07.133Z,95700
2022-08-01T09:10:15.875Z,95703
2022-08-01T09:11:25.607Z,95706
2022-08-01T09:12:34.362Z,95702
2022-08-01T09:13:45.174Z,95695
2022-08-01T09:14:54.026Z,95703
2022-08-01T09:16:03.843Z,95700
2022-08-01T09:17:13.739Z,95704
2022-08-01T09:18:23.557Z,95710
2022-08-01T09:19:39.231Z,95708
2022-08-01T09:20:44.135Z,95710
2022-08-01T09:21:53.927Z,95714
2022-08-01T09:23:03.723Z,95706
2022-08-01T09:24:13.602Z,95709
2022-08-01T09:25:29.713Z,95704
2022-08-01T09:26:35.143Z,95701
2022-08-01T09:27:46.184Z,95703
2022-08-01T09:28:53.785Z,95705
2022-08-01T09:30:03.647Z,95706
2022-08-01T09:31:14.397Z,95707
2022-08-01T09:32:25.927Z,95705
2022-08-01T09:33:35.059Z,95705
2022-08-01T09:34:45.837Z,95706
2022-08-01T09:35:55.699Z,95702
2022-08-01T09:37:05.722Z,95703
2022-08-01T09:38:16.475Z,95693
2022-08-01T09:39:26.265Z,95699
2022-08-01T09:40:36.023Z,95701
2022-08-01T09:41:44.833Z,95700
2022-08-01T09:42:55.555Z,95703
2022-08-01T09:44:05.410Z,95701
2022-08-01T09:45:18.952Z,95699
2022-08-01T09:46:26.020Z,95698
2022-08-01T09:47:35.870Z,95705
2022-08-01T09:48:49.226Z,95701
2022-08-01T09:49:55.626Z,95696
2022-08-01T09:51:09.206Z,95702
2022-08-01T09:52:16.259Z,95690
2022-08-01T09:53:30.531Z,95693
2022-08-01T09:54:36.843Z,95692
2022-08-01T09:55:45.618Z,95696
2022-08-01T09:56:54.439Z,95688
2022-08-01T09:58:05.172Z,95687
2022-08-01T09:59:16.822Z,95694
2022-08-01T10:00:44.097Z,95690
2022-08-01T10:01:36.154Z,95690
2022-08-01T10:02:45.590Z,95684
2022-08-01T10:03:55.407Z,95688
2022-08-01T10:05:07.721Z,95690
2022-08-01T10:06:13.904Z,95692
2022-08-01T10:07:27.623Z,95683
2022-08-01T10:08:35.697Z,95687
2022-08-01T10:09:45.525Z,95693
2022-08-01T10:10:57.665Z,95697
2022-08-01T10:12:05.036Z,95694
2022-08-01T10:13:15.954Z,95687
2022-08-01T10:14:25.740Z,95684
2022-08-01T10:15:36.606Z,95686
2022-08-01T10:16:45.362Z,95682
2022-08-01T10:17:57.187Z,95681
2022-08-01T10:19:06.035Z,95674
2022-08-01T10:20:21.775Z,95677
2022-08-01T10:21:47.620Z,95691
2022-08-01T10:22:38.287Z,95683
2022-08-01T10:23:48.070Z,95680
2022-08-01T10:24:58.916Z,95675
2022-08-01T10:26:08.719Z,95674
2022-08-01T10:27:16.825Z,95693
2022-08-01T10:28:26.194Z,95685
2022-08-01T10:29:45.399Z,95693
2022-08-01T10:30:46.783Z,95678
2022-08-01T10:31:56.527Z,95675
2022-08-01T10:33:07.268Z,95677
2022-08-01T10:34:16.069Z,95671
2022-08-01T10:35:46.219Z,95674
2022-08-01T10:36:36.802Z,95666
2022-08-01T10:37:51.721Z,95670
2022-08-01T10:38:56.444Z,95670
2022-08-01T10:40:29.166Z,95678
2022-08-01T10:41:17.038Z,95674
2022-08-01T10:42:26.893Z,95674
2022-08-01T10:43:36.827Z,95677
2022-08-01T10:44:46.617Z,95666
2022-08-01T10:45:56.391Z,95672
2022-08-01T10:47:05.430Z,95668
2022-08-01T10:48:15.046Z,95669
2022-08-01T10:49:24.849Z,95665
2022-08-01T10:50:33.607Z,95673
2022-08-01T10:51:51.757Z,95663
2022-08-01T10:52:54.343Z,95660
2022-08-01T10:54:05.179Z,95665
2022-08-01T10:55:14.980Z,95663
2022-08-01T10:56:26.727Z,95653
2022-08-01T10:57:34.766Z,95661
2022-08-01T10:58:44.763Z,95664
2022-08-01T10:59:59.547Z,95662
2022-08-01T11:01:04.448Z,95667
2022-08-01T11:02:14.190Z,95657
2022-08-01T11:03:41.555Z,95658
2022-08-01T11:04:35.882Z,95654
2022-08-01T11:05:46.699Z,95659
2022-08-01T11:06:56.533Z,95650
2022-08-01T11:08:06.277Z,95647
2022-08-01T11:09:16.346Z,95642
2022-08-01T11:10:24.850Z,95639
2022-08-01T11:11:37.307Z,95649
2022-08-01T11:12:45.445Z,95645
2022-08-01T11:13:55.292Z,95644
2022-08-01T11:15:04.016Z,95647
2022-08-01T11:16:16.165Z,95645
2022-08-01T11:17:24.636Z,95641
2022-08-01T11:18:37.477Z,95648
2022-08-01T11:19:44.197Z,95643
2022-08-01T11:20:53.960Z,95649
2022-08-01T11:22:04.704Z,95649
2022-08-01T11:23:14.596Z,95643
2022-08-01T11:24:24.429Z,95636
2022-08-01T11:26:03.757Z,95642
2022-08-01T11:26:45.071Z,95643
2022-08-01T11:27:54.840Z,95639
2022-08-01T11:29:19.789Z,95638
2022-08-01T11:30:15.338Z,95639
2022-08-01T11:31:25.067Z,95629
2022-08-01T11:32:52.728Z,95614
2022-08-01T11:33:47.167Z,95640
2022-08-01T11:34:57.418Z,95641
2022-08-01T11:36:08.187Z,95641
2022-08-01T11:37:18.900Z,95638
2022-08-01T11:38:30.009Z,95634
2022-08-01T11:39:40.805Z,95637
2022-08-01T11:40:50.608Z,95631
2022-08-01T11:42:00.343Z,95631
2022-08-01T11:43:10.119Z,95623
2022-08-01T11:44:18.888Z,95624
2022-08-01T11:45:28.788Z,95624
2022-08-01T11:46:38.546Z,95636
2022-08-01T11:47:49.828Z,95623
2022-08-01T11:48:58.159Z,95625
2022-08-01T11:50:08.974Z,95626
2022-08-01T11:51:23.913Z,95632
2022-08-01T11:52:28.600Z,95619
2022-08-01T11:53:38.383Z,95622
2022-08-01T11:54:49.169Z,95624
2022-08-01T11:55:59.920Z,95626
2022-08-01T11:57:10.027Z,95624
2022-08-01T11:58:22.122Z,95633
2022-08-01T11:59:37.243Z,95629
2022-08-01T12:00:43.917Z,95621
2022-08-01T12:01:50.895Z,95628
2022-08-01T12:03:01.706Z,95629
2022-08-01T12:04:11.430Z,95630
2022-08-01T12:05:21.191Z,95632
2022-08-01T12:06:30.981Z,95634
2022-08-01T12:07:39.871Z,95634
2022-08-01T12:08:50.665Z,95639
2022-08-01T12:10:00.467Z,95627
2022-08-01T12:11:09.226Z,95624
2022-08-01T12:12:19.030Z,95629
2022-08-01T12:13:28.845Z,95630
2022-08-01T12:14:37.643Z,95626
2022-08-01T12:15:47.466Z,95629
2022-08-01T12:16:57.198Z,95624
2022-08-01T12:18:05.981Z,95621
2022-08-01T12:19:15.762Z,95626
2022-08-01T12:20:24.505Z,95618
2022-08-01T12:21:35.260Z,95616
2022-08-01T12:22:45.015Z,95623
2022-08-01T12:23:54.786Z,95622
2022-08-01T12:25:04.610Z,95620
2022-08-01T12:26:25.961Z,95618
2022-08-01T12:27:25.322Z,95620
2022-08-01T12:28:35.088Z,95614
2022-08-01T12:29:45.847Z,95610
2022-08-01T12:30:55.584Z,95610
2022-08-01T12:32:05.382Z,95603
2022-08-01T12:33:16.191Z,95611
2022-08-01T12:34:24.956Z,95609
2022-08-01T12:35:34.720Z,95606
2022-08-01T12:36:44.547Z,95613
2022-08-01T12:37:54.369Z,95602
2022-08-01T12:39:04.285Z,95598
2022-08-01T12:40:14.074Z,95600
2022-08-01T12:41:24.870Z,95600
2022-08-01T12:42:34.805Z,95599
2022-08-01T12:43:44.611Z,95592
2022-08-01T12:44:54.370Z,95587
2022-08-01T12:46:02.185Z,95596
2022-08-01T12:47:12.015Z,95596
2022-08-01T12:48:21.787Z,95607
2022-08-01T12:49:31.700Z,95605
2022-08-01T12:50:41.510Z,95595
2022-08-01T12:51:56.985Z,95590
2022-08-01T12:53:00.034Z,95578
2022-08-01T12:54:09.832Z,95592
2022-08-01T12:55:19.609Z,95585
2022-08-01T12:56:30.450Z,95584
2022-08-01T12:57:40.376Z,95582
2022-08-01T12:58:49.186Z,95588
2022-08-01T12:59:58.985Z,95590
2022-08-01T13:01:07.990Z,95590
2022-08-01T13:02:17.997Z,95584
2022-08-01T13:03:28.017Z,95589
2022-08-01T13:04:36.812Z,95588
2022-08-01T13:05:47.578Z,95584
2022-08-01T13:06:58.346Z,95578
2022-08-01T13:08:07.431Z,95582
2022-08-01T13:09:18.021Z,95577
2022-08-01T13:10:26.871Z,95579
2022-08-01T13:11:35.634Z,95578
2022-08-01T13:12:46.488Z,95572
2022-08-01T13:13:55.271Z,95572
2022-08-01T13:15:05.153Z,95577
2022-08-01T13:16:16.317Z,95580
2022-08-01T13:17:25.760Z,95582
2022-08-01T13:18:35.652Z,95579
2022-08-01T13:19:44.536Z,95574
2022-08-01T13:20:53.340Z,95575
2022-08-01T13:22:03.080Z,95575
2022-08-01T13:23:11.876Z,95575
2022-08-01T13:24:21.585Z,95568
2022-08-01T13:25:30.379Z,95579
2022-08-01T13:26:40.242Z,95566
2022-08-01T13:27:52.273Z,95575
2022-08-01T13:28:59.853Z,95573
2022-08-01T13:30:09.577Z,95571
2022-08-01T13:31:19.406Z,95574
2022-08-01T13:32:31.615Z,95573
2022-08-01T13:33:39.182Z,95576
2022-08-01T13:34:47.968Z,95572
2022-08-01T13:35:57.717Z,95580
2022-08-01T13:37:07.527Z,95569
2022-08-01T13:38:17.281Z,95581
2022-08-01T13:39:26.117Z,95579
2022-08-01T13:40:35.912Z,95578
2022-08-01T13:41:43.658Z,95578
2022-08-01T13:42:52.505Z,95584
2022-08-01T13:44:02.295Z,95578
2022-08-01T13:45:11.921Z,95577
2022-08-01T13:46:21.787Z,95588
2022-08-01T13:47:32.467Z,95578
2022-08-01T13:48:41.376Z,95578
2022-08-01T13:49:52.182Z,95576
2022-08-01T13:51:21.344Z,95575
2022-08-01T13:52:12.674Z,95584
2022-08-01T13:53:22.516Z,95579
2022-08-01T13:54:31.374Z,95586
2022-08-01T13:55:41.165Z,95588
2022-08-01T13:56:49.928Z,95584
2022-08-01T13:57:59.673Z,95588
2022-08-01T13:59:09.481Z,95594
2022-08-01T14:00:19.379Z,95596
2022-08-01T14:01:33.806Z,95587
2022-08-01T14:02:38.882Z,95586
2022-08-01T14:03:48.664Z,95582
2022-08-01T14:04:58.419Z,95585
2022-08-01T14:06:08.413Z,95581
2022-08-01T14:07:18.172Z,95582
2022-08-01T14:08:28.914Z,95584
2022-08-01T14:09:45.263Z,95584
2022-08-01T14:10:49.605Z,95583
2022-08-01T14:11:59.484Z,95584
2022-08-01T14:13:11.656Z,95581
2022-08-01T14:14:20.017Z,95583
2022-08-01T14:15:37.095Z,95583
2022-08-01T14:16:40.460Z,95579
2022-08-01T14:17:50.250Z,95585
2022-08-01T14:18:58.021Z,95586
2022-08-01T14:20:07.795Z,95589
2022-08-01T14:21:16.703Z,95591
2022-08-01T14:22:26.516Z,95599
2022-08-01T14:23:36.394Z,95600
2022-08-01T14:24:44.197Z,95596
2022-08-01T14:25:59.334Z,95597
2022-08-01T14:27:04.757Z,95604
2022-08-01T14:28:14.530Z,95603
2022-08-01T14:29:24.338Z,95607
2022-08-01T14:30:35.087Z,95608
2022-08-01T14:31:43.822Z,95610
2022-08-01T14:32:53.570Z,95600
2022-08-01T14:34:03.367Z,95610
2022-08-01T14:35:11.167Z,95592
2022-08-01T14:36:29.827Z,95604
2022-08-01T14:37:35.978Z,95602
2022-08-01T14:38:41.397Z,95603
2022-08-01T14:39:53.648Z,95599
2022-08-01T14:41:01.913Z,95598
2022-08-01T14:42:11.656Z,95606
2022-08-01T14:43:27.206Z,95606
2022-08-01T14:44:33.323Z,95606
2022-08-01T14:45:43.890Z,95599
2022-08-01T14:46:57.503Z,95602
2022-08-01T14:48:02.449Z,95601
2022-08-01T14:49:12.297Z,95607
2022-08-01T14:50:22.141Z,95607
2022-08-01T14:51:31.899Z,95609
2022-08-01T14:52:41.808Z,95606
2022-08-01T14:53:53.090Z,95611
2022-08-01T14:55:00.340Z,95612
2022-08-01T14:56:09.118Z,95608